• Join FlightAware (Why Join?)
  • Login
  • US Flag 
Rudolph Flight #1: Arrived! 
04:35AM EST


 

Airport Tracker/Info


-or-


 

Live Flight TrackerFlight Track Log ✈ SWA2236 ✈ 12-Jul-2013 ✈ KBWI - KALB

Flight Track Log - Related Links

Times and Time Zones

All times are in EDT time to prevent confusion due to time zone crossing. See the SWA2236 flight status page for this flight to view local times or setup timezone preferences in your user account.

Time Position Orientation Groundspeed Altitude Reporting Facility
EDT Latitude Longitude Course Direction KTS MPH feet Rate Location/Type
10:42PM 39.1667 -76.7167 270° West 167 192 1,800  Level Potomac TRACON
10:44PM 39.0872 -76.7200 182° South 206 237 6,100 2,220 Climbing Washington Center
10:45PM 39.0672 -76.6342 107° East 211 243 8,600 2,280 Climbing Washington Center
10:46PM 39.0889 -76.5275 75° East 217 250 10,700 2,520 Climbing Washington Center
10:47PM 39.1086 -76.4075 78° East 288 331 13,700 3,120 Climbing Washington Center
10:48PM 39.1667 -76.6439 270° West  Level FlightAware Approximate
10:48PM 39.1197 -76.2792 84° East 332 382 17,100  Level Washington Center
10:49PM 39.1122 -76.1372 94° East 346 398 19,700 2,160 Climbing Washington Center
10:50PM 39.1503 -75.9983 71° East 371 427 21,600 1,620 Climbing Washington Center
10:51PM 39.2089 -75.8594 61° Northeast 417 480 23,000 1,500 Climbing Washington Center
10:52PM 39.2967 -75.7444 45° Northeast 430 495 24,600 1,980 Climbing Washington Center
10:53PM 39.3844 -75.6319 45° Northeast 430 495 27,100 2,160 Climbing Washington Center
10:54PM 39.4719 -75.5217 44° Northeast 435 501 29,000 960 Climbing Washington Center
10:55PM 39.5656 -75.3978 46° Northeast 441 507 29,000  Level Washington Center
10:56PM 39.6631 -75.2681 46° Northeast 470 541 29,000  Level Washington Center
10:57PM 39.7586 -75.1353 47° Northeast 487 560 29,000  Level Washington Center
10:59PM 39.8961 -74.9350 48° Northeast 530 610 29,000  Level New York Center
11:00PM 39.9883 -74.8050 47° Northeast 507 583 29,000  Level New York Center
11:01PM 40.0925 -74.6808 42° Northeast 495 570 29,000  Level New York Center
11:02PM 40.2236 -74.6283 17° North 479 551 29,000  Level New York Center
11:03PM 40.3647 -74.5817 14° North 496 571 29,000  Level New York Center
11:04PM 40.4994 -74.5375 14° North 496 571 29,000  Level New York Center
11:05PM 40.6342 -74.4928 14° North 496 571 29,000  Level New York Center
11:06PM 40.7711 -74.4483 14° North 496 571 29,000 -180 Level New York Center
11:08PM 41.0733 -74.3508 14° North 503 579 28,500 -540 Descending Boston Center
11:09PM 41.2053 -74.3053 15° North 503 579 27,400 -1,080 Descending Boston Center
11:10PM 41.3394 -74.2567 15° North 498 573 26,400 -720 Descending Boston Center
11:11PM 41.4758 -74.2106 14° North 498 573 26,000 -780 Descending Boston Center
11:12PM 41.6142 -74.1644 14° North 498 573 24,900 -2,220 Descending Boston Center
11:13PM 41.7461 -74.1206 14° North 492 566 21,600 -3,060 Descending Boston Center
11:14PM 41.8822 -74.0714 15° North 475 547 18,800 -2,400 Descending Boston Center
11:15PM 41.9847 -74.0350 15° North 433 498 16,900 -2,520 Descending Boston Center
11:16PM 42.1083 -73.9906 15° North 415 478 13,800 -2,880 Descending Boston Center
11:17PM 42.2028 -73.9592 14° North 395 455 11,200 -1,920 Descending Boston Center
11:18PM 42.3094 -73.9225 14° North 369 425 10,000 -960 Descending Boston Center
11:19PM 42.3786 -73.8989 14° North 310 357 9,300 -2,100 Descending Boston Center
11:20PM 42.4603 -73.8697 15° North 273 314 5,800 -1,920 Descending Boston Center
11:22PM 42.5689 -73.8328 14° North 217 250 3,600 -1,080 Descending Boston Center
11:23PM 42.6192 -73.8169 13° North 183 211 2,600 -900 Descending Boston Center
11:24PM 42.6653 -73.8039 12° North 173 199 1,800 -840 Descending Boston Center
11:25PM 42.7089 -73.8075 357° North 141 162 800 -900 Descending Boston Center